Time;durP1;ratioP1;P1;durP2;ratioP2;P2;SDS_P1;SDS_P2;PMS_P1;PMS_P2;Temp;Humidity;BMP_temperature;BMP_pressure;BME280_temperature;BME280_humidity;BME280_pressure;Samples;Min_cycle;Max_cycle;Signal;HPM_P1;HPM_P2
2023/06/18 00:00:38;;;;;;;1.50;1.00;;;19.70;82.10;;;;;;5006478;28;20576;-80
2023/06/18 00:03:05;;;;;;;1.47;0.90;;;19.70;81.50;;;;;;4997969;28;20484;-80
2023/06/18 00:05:34;;;;;;;1.40;0.90;;;19.70;81.70;;;;;;5004884;28;20464;-80
2023/06/18 00:08:01;;;;;;;1.43;0.90;;;19.70;81.90;;;;;;4999611;28;20491;-80
2023/06/18 00:10:28;;;;;;;1.40;0.90;;;19.80;81.80;;;;;;5005461;28;20982;-80
2023/06/18 00:12:57;;;;;;;1.43;1.00;;;19.80;81.80;;;;;;4996973;28;20785;-80
2023/06/18 00:15:23;;;;;;;1.43;0.90;;;19.80;81.80;;;;;;5007992;28;20460;-80
2023/06/18 00:17:51;;;;;;;1.47;0.90;;;19.80;81.90;;;;;;4996610;28;20487;-80
2023/06/18 00:20:17;;;;;;;1.40;0.90;;;19.80;81.80;;;;;;5007466;28;20602;-80
2023/06/18 00:22:48;;;;;;;1.40;0.90;;;19.80;82.30;;;;;;5000558;28;20902;-79
2023/06/18 00:25:15;;;;;;;1.43;0.90;;;19.90;83.20;;;;;;5009380;28;20535;-80
2023/06/18 00:27:42;;;;;;;1.40;1.00;;;19.90;85.50;;;;;;4997708;28;20473;-80
2023/06/18 00:30:11;;;;;;;1.43;0.90;;;19.90;85.90;;;;;;5008596;28;20524;-80
2023/06/18 00:32:37;;;;;;;1.43;0.90;;;19.90;85.50;;;;;;4994832;28;21025;-79
2023/06/18 00:35:05;;;;;;;1.43;0.90;;;19.90;86.30;;;;;;5005280;28;20460;-79
2023/06/18 00:37:34;;;;;;;1.50;0.90;;;19.90;86.30;;;;;;4995934;28;20488;-80
2023/06/18 00:40:01;;;;;;;1.47;0.90;;;20.00;87.20;;;;;;5006045;28;20468;-80
2023/06/18 00:42:28;;;;;;;1.43;0.90;;;20.00;87.70;;;;;;4996612;28;20496;-80
2023/06/18 00:44:55;;;;;;;1.43;0.90;;;20.00;87.50;;;;;;5003156;28;20476;-80
2023/06/18 00:47:23;;;;;;;1.40;0.90;;;19.90;87.00;;;;;;4997467;28;20525;-80
2023/06/18 00:49:51;;;;;;;1.43;1.00;;;19.90;86.50;;;;;;5012428;28;20918;-80
2023/06/18 00:52:23;;;;;;;1.60;1.30;;;19.90;87.00;;;;;;4997051;28;20496;-80
2023/06/18 00:54:51;;;;;;;1.43;0.93;;;19.90;86.30;;;;;;5005682;28;20466;-80
2023/06/18 00:57:20;;;;;;;1.87;1.30;;;20.00;86.00;;;;;;4999649;28;20480;-79
2023/06/18 00:59:51;;;;;;;1.40;0.90;;;20.00;85.40;;;;;;5013026;28;20452;-80
2023/06/18 01:02:23;;;;;;;1.43;0.90;;;20.00;85.60;;;;;;5000183;28;20488;-79
2023/06/18 01:04:53;;;;;;;1.43;0.90;;;20.00;86.10;;;;;;5018569;28;20947;-80
2023/06/18 01:07:20;;;;;;;1.40;0.90;;;20.00;86.10;;;;;;5001641;28;21094;-80
2023/06/18 01:09:53;;;;;;;1.40;1.00;;;19.90;85.70;;;;;;5012181;28;20871;-80
2023/06/18 01:12:21;;;;;;;1.50;1.20;;;19.90;85.80;;;;;;4998134;28;20481;-80
2023/06/18 01:14:50;;;;;;;1.43;0.90;;;19.90;86.30;;;;;;5014768;28;20456;-79
2023/06/18 01:17:18;;;;;;;1.43;0.90;;;19.90;86.20;;;;;;4997205;28;20533;-80
2023/06/18 01:19:49;;;;;;;1.47;0.90;;;19.80;86.50;;;;;;5013860;28;20475;-79
2023/06/18 01:22:26;;;;;;;1.50;1.30;;;19.80;86.50;;;;;;4995626;28;20481;-78
2023/06/18 01:24:56;;;;;;;1.47;0.90;;;19.80;86.80;;;;;;5011066;28;20460;-79
2023/06/18 01:27:25;;;;;;;1.43;1.00;;;19.70;87.10;;;;;;4981391;28;20481;-79
2023/06/18 01:29:52;;;;;;;1.50;0.90;;;19.70;86.70;;;;;;5007819;28;20578;-79
2023/06/18 01:32:21;;;;;;;1.43;0.90;;;19.60;87.20;;;;;;4992895;28;20495;-79
2023/06/18 01:34:48;;;;;;;1.50;1.00;;;19.50;88.80;;;;;;5009286;28;20467;-79
2023/06/18 01:37:35;;;;;;;1.50;0.90;;;19.40;87.90;;;;;;4992474;28;20481;-79
2023/06/18 01:40:13;;;;;;;1.47;0.90;;;19.40;89.10;;;;;;5010433;28;20487;-79
2023/06/18 01:42:47;;;;;;;1.43;0.90;;;19.40;88.70;;;;;;5001025;28;20516;-80
2023/06/18 01:45:21;;;;;;;1.43;0.90;;;19.40;87.30;;;;;;5009288;28;20496;-80
2023/06/18 01:47:51;;;;;;;1.43;0.90;;;19.40;88.60;;;;;;4998639;28;20491;-79
2023/06/18 01:50:19;;;;;;;1.47;0.90;;;19.40;87.60;;;;;;5007117;28;20483;-79
2023/06/18 01:52:50;;;;;;;1.43;0.90;;;19.40;88.20;;;;;;4995780;28;20482;-80
2023/06/18 01:55:18;;;;;;;1.40;0.90;;;19.30;87.90;;;;;;5008540;28;20493;-82
2023/06/18 01:57:45;;;;;;;1.43;0.90;;;19.30;87.20;;;;;;4994001;28;21040;-80
2023/06/18 02:00:13;;;;;;;1.50;0.90;;;19.30;87.10;;;;;;5009741;28;20767;-81
2023/06/18 02:02:40;;;;;;;1.47;0.93;;;19.30;87.00;;;;;;4996700;28;20577;-80
2023/06/18 02:05:07;;;;;;;1.40;0.90;;;19.20;86.90;;;;;;5015068;28;20524;-81
2023/06/18 02:07:34;;;;;;;1.40;0.90;;;19.20;86.90;;;;;;4996803;28;20477;-80
2023/06/18 02:10:02;;;;;;;1.43;0.90;;;19.10;87.20;;;;;;5011254;28;20471;-80
2023/06/18 02:12:29;;;;;;;1.47;0.90;;;19.10;88.20;;;;;;4992820;28;20871;-77
2023/06/18 02:14:57;;;;;;;1.43;0.90;;;19.00;87.40;;;;;;5007803;28;20471;-78
2023/06/18 02:17:24;;;;;;;1.47;0.90;;;19.00;87.90;;;;;;4988809;28;20472;-78
2023/06/18 02:19:51;;;;;;;1.50;1.00;;;19.00;88.70;;;;;;5006186;28;20510;-78
2023/06/18 02:22:17;;;;;;;1.43;1.00;;;18.90;89.90;;;;;;4993036;28;20497;-79
2023/06/18 02:24:45;;;;;;;1.43;0.90;;;18.90;89.60;;;;;;5008735;28;20464;-78
2023/06/18 02:27:14;;;;;;;1.47;1.00;;;18.90;89.10;;;;;;4993115;28;20487;-78
2023/06/18 02:29:42;;;;;;;1.47;1.00;;;18.80;90.20;;;;;;5008022;28;20602;-79
2023/06/18 02:32:09;;;;;;;1.47;0.90;;;18.80;89.50;;;;;;4993321;28;20582;-78
2023/06/18 02:34:35;;;;;;;1.43;1.00;;;18.80;89.50;;;;;;5009955;28;20460;-81
2023/06/18 02:37:02;;;;;;;1.50;1.00;;;18.70;90.00;;;;;;5004277;28;20551;-79
2023/06/18 02:39:29;;;;;;;1.43;1.00;;;18.70;89.60;;;;;;5010825;28;20467;-80
2023/06/18 02:41:56;;;;;;;1.43;0.90;;;18.70;90.00;;;;;;4997659;28;20498;-78
2023/06/18 02:44:28;;;;;;;1.40;0.90;;;18.60;90.20;;;;;;5010111;28;20461;-78
2023/06/18 02:46:55;;;;;;;1.40;0.90;;;18.60;89.50;;;;;;4991765;28;20480;-79
2023/06/18 02:49:21;;;;;;;1.43;0.90;;;18.60;89.80;;;;;;5008514;28;20453;-79
2023/06/18 02:51:49;;;;;;;1.47;0.90;;;18.60;90.20;;;;;;4989629;28;20485;-78
2023/06/18 02:54:15;;;;;;;1.47;0.90;;;18.50;89.90;;;;;;4999670;28;20467;-78
2023/06/18 02:56:43;;;;;;;1.50;0.90;;;18.50;89.70;;;;;;4996160;28;20665;-79
2023/06/18 02:59:10;;;;;;;1.40;0.90;;;18.50;89.80;;;;;;5009834;28;21053;-79
2023/06/18 03:01:38;;;;;;;1.43;0.90;;;18.50;90.10;;;;;;4996508;28;20949;-79
2023/06/18 03:04:04;;;;;;;1.47;0.90;;;18.50;90.00;;;;;;5002537;28;20959;-79
2023/06/18 03:06:32;;;;;;;1.47;0.90;;;18.40;90.60;;;;;;4997699;28;20480;-79
2023/06/18 03:08:58;;;;;;;1.47;0.90;;;18.40;90.00;;;;;;5008183;28;20464;-80
2023/06/18 03:11:26;;;;;;;1.50;0.90;;;18.40;90.60;;;;;;4997264;28;20573;-79
2023/06/18 03:13:53;;;;;;;1.43;0.90;;;18.40;90.40;;;;;;5007939;28;20475;-79
2023/06/18 03:16:20;;;;;;;1.43;0.97;;;18.40;89.60;;;;;;4996610;28;20552;-80
2023/06/18 03:18:49;;;;;;;1.50;0.90;;;18.40;89.50;;;;;;5008235;28;20584;-80
2023/06/18 03:21:16;;;;;;;1.47;0.90;;;18.40;88.70;;;;;;4996366;28;20527;-79
2023/06/18 03:23:43;;;;;;;1.47;0.90;;;18.40;88.30;;;;;;5011316;28;20480;-79
2023/06/18 03:26:10;;;;;;;1.47;1.00;;;18.40;88.50;;;;;;4999740;28;20509;-79
2023/06/18 03:28:37;;;;;;;1.43;0.90;;;18.40;88.20;;;;;;5007745;28;20461;-79
2023/06/18 03:31:04;;;;;;;1.47;0.90;;;18.40;88.20;;;;;;5001362;28;20476;-79
2023/06/18 03:33:31;;;;;;;1.50;0.90;;;18.40;88.60;;;;;;5004251;28;20465;-79
2023/06/18 03:36:00;;;;;;;1.40;0.90;;;18.40;87.80;;;;;;5000958;28;20460;-79
2023/06/18 03:38:27;;;;;;;1.50;1.20;;;18.40;88.10;;;;;;5015952;28;20542;-80
2023/06/18 03:40:54;;;;;;;1.43;0.90;;;18.40;88.00;;;;;;4999355;28;21025;-79
2023/06/18 03:43:21;;;;;;;1.50;1.00;;;18.40;87.50;;;;;;5007281;28;20499;-80
2023/06/18 03:45:48;;;;;;;1.43;0.90;;;18.50;87.90;;;;;;5010503;28;20480;-79
2023/06/18 03:48:15;;;;;;;1.47;0.90;;;18.50;88.10;;;;;;5018743;28;20456;-79
2023/06/18 03:50:42;;;;;;;1.47;1.00;;;18.50;88.80;;;;;;5013500;28;20480;-80
2023/06/18 03:53:10;;;;;;;1.40;0.90;;;18.50;88.40;;;;;;4998226;28;20479;-80
2023/06/18 03:55:37;;;;;;;1.43;1.00;;;18.50;88.70;;;;;;5012644;28;20453;-79
2023/06/18 03:58:04;;;;;;;1.47;1.00;;;18.50;88.60;;;;;;4996725;28;20598;-80
2023/06/18 04:00:32;;;;;;;1.50;1.00;;;18.50;89.60;;;;;;5011141;28;20652;-80
2023/06/18 04:02:59;;;;;;;1.40;1.00;;;18.50;90.40;;;;;;4997256;28;20476;-80
2023/06/18 04:05:26;;;;;;;1.50;1.00;;;18.50;90.60;;;;;;5011439;28;20539;-80
2023/06/18 04:07:53;;;;;;;1.50;1.00;;;18.40;90.60;;;;;;4997563;28;20476;-81
2023/06/18 04:10:21;;;;;;;1.50;0.90;;;18.40;90.20;;;;;;5013951;28;20511;-80
2023/06/18 04:12:48;;;;;;;1.40;0.90;;;18.40;90.80;;;;;;4996630;28;20880;-81
2023/06/18 04:15:15;;;;;;;1.50;1.00;;;18.50;91.00;;;;;;5013551;28;20500;-81
2023/06/18 04:17:42;;;;;;;1.47;0.90;;;18.40;91.00;;;;;;4993030;28;20515;-80
2023/06/18 04:20:11;;;;;;;1.40;0.90;;;18.50;90.40;;;;;;5012053;28;20488;-81
2023/06/18 04:22:37;;;;;;;1.47;0.90;;;18.50;90.70;;;;;;4997453;28;20500;-80
2023/06/18 04:25:05;;;;;;;1.47;0.90;;;18.50;90.90;;;;;;5003050;28;20483;-80
2023/06/18 04:27:33;;;;;;;1.50;0.90;;;18.50;90.50;;;;;;4994907;28;20922;-80
2023/06/18 04:30:00;;;;;;;1.47;0.90;;;18.60;90.20;;;;;;5010810;28;20467;-80
2023/06/18 04:32:27;;;;;;;1.43;0.90;;;18.70;90.00;;;;;;5000318;28;20491;-81
2023/06/18 04:34:54;;;;;;;1.40;0.90;;;18.70;89.60;;;;;;5004833;28;20461;-80
2023/06/18 04:37:21;;;;;;;2.53;2.33;;;18.80;88.40;;;;;;4991473;28;20491;-81
2023/06/18 04:39:47;;;;;;;1.47;0.90;;;18.90;89.30;;;;;;5011389;28;20489;-80
2023/06/18 04:42:14;;;;;;;1.47;0.90;;;19.10;88.70;;;;;;4995734;28;20484;-80
2023/06/18 04:44:42;;;;;;;1.50;0.90;;;19.10;88.20;;;;;;5008887;28;20469;-80
2023/06/18 04:47:09;;;;;;;1.47;0.97;;;19.20;87.60;;;;;;4998291;28;20921;-82
2023/06/18 04:49:36;;;;;;;1.43;0.90;;;19.30;86.80;;;;;;5009584;28;20598;-81
2023/06/18 04:52:02;;;;;;;1.47;0.90;;;19.40;86.80;;;;;;4998841;28;20507;-81
2023/06/18 04:54:32;;;;;;;1.50;1.00;;;19.60;86.10;;;;;;5011353;28;20969;-81
2023/06/18 04:56:59;;;;;;;1.40;0.90;;;19.60;85.40;;;;;;4999943;28;20488;-81
2023/06/18 04:59:25;;;;;;;1.50;0.90;;;19.70;85.30;;;;;;5012331;28;20487;-81
2023/06/18 05:01:54;;;;;;;1.47;0.90;;;19.80;85.00;;;;;;4999912;28;20488;-82
2023/06/18 05:04:21;;;;;;;1.47;0.90;;;19.90;84.90;;;;;;5008969;28;20478;-82
2023/06/18 05:06:48;;;;;;;1.43;0.90;;;20.00;84.40;;;;;;4999145;28;20483;-81
2023/06/18 05:09:15;;;;;;;1.50;0.90;;;20.00;84.60;;;;;;5009653;28;20543;-80
2023/06/18 05:11:41;;;;;;;1.47;0.97;;;20.00;84.30;;;;;;4999378;28;20499;-80
2023/06/18 05:14:08;;;;;;;1.43;0.90;;;20.10;83.70;;;;;;5014881;28;21178;-80
2023/06/18 05:16:35;;;;;;;2.40;2.20;;;20.20;84.00;;;;;;5000343;28;20480;-80
2023/06/18 05:19:04;;;;;;;1.50;0.90;;;20.40;83.90;;;;;;5009963;28;20492;-80
2023/06/18 05:21:31;;;;;;;1.47;0.90;;;20.40;83.30;;;;;;5003440;28;20495;-79
2023/06/18 05:23:58;;;;;;;1.47;0.90;;;20.40;83.60;;;;;;5009881;28;20460;-82
2023/06/18 05:26:25;;;;;;;1.47;0.90;;;20.50;83.50;;;;;;4997418;28;21043;-79
2023/06/18 05:28:52;;;;;;;1.60;1.30;;;20.50;83.30;;;;;;5007704;28;20452;-79
2023/06/18 05:31:19;;;;;;;1.50;0.90;;;20.60;83.40;;;;;;4999615;28;20946;-79
2023/06/18 05:33:45;;;;;;;1.47;0.90;;;20.60;83.20;;;;;;5010342;28;20488;-80
2023/06/18 05:36:14;;;;;;;1.47;0.90;;;20.60;83.50;;;;;;5002081;28;20487;-79
2023/06/18 05:38:41;;;;;;;1.43;0.90;;;20.70;83.40;;;;;;4998732;28;20488;-80
2023/06/18 05:41:07;;;;;;;1.47;0.90;;;20.80;83.70;;;;;;5000570;28;20480;-79
2023/06/18 05:43:34;;;;;;;1.93;1.83;;;20.90;83.00;;;;;;5001988;28;20452;-79
2023/06/18 05:46:01;;;;;;;1.40;0.90;;;21.00;82.90;;;;;;5003337;28;20456;-80
2023/06/18 05:48:28;;;;;;;1.50;1.00;;;21.10;82.30;;;;;;5013354;28;20464;-80
2023/06/18 05:50:55;;;;;;;1.50;1.00;;;21.10;81.90;;;;;;5004695;28;20475;-79
2023/06/18 05:53:23;;;;;;;1.47;0.90;;;21.20;81.50;;;;;;5011218;28;20468;-79
2023/06/18 05:55:49;;;;;;;1.50;1.13;;;21.20;81.40;;;;;;5009553;28;20500;-80
2023/06/18 05:58:16;;;;;;;1.50;1.00;;;21.20;81.40;;;;;;4996809;28;20860;-80
2023/06/18 06:00:43;;;;;;;1.47;0.90;;;21.30;80.70;;;;;;5016170;28;20487;-80
2023/06/18 06:03:10;;;;;;;1.40;0.90;;;21.30;80.80;;;;;;4995911;28;20670;-80
2023/06/18 06:05:40;;;;;;;1.47;0.90;;;21.40;79.80;;;;;;5016803;28;20456;-80
2023/06/18 06:08:07;;;;;;;1.47;0.90;;;21.50;79.80;;;;;;4998545;28;20526;-80
2023/06/18 06:10:37;;;;;;;1.50;1.30;;;21.50;79.30;;;;;;5018683;28;20492;-80
2023/06/18 06:13:04;;;;;;;1.47;0.90;;;21.60;79.20;;;;;;5003501;28;20483;-79
2023/06/18 06:15:31;;;;;;;1.50;0.90;;;21.70;79.10;;;;;;5017959;28;21016;-80
2023/06/18 06:17:58;;;;;;;1.40;0.90;;;21.90;79.10;;;;;;4996772;28;20576;-81
2023/06/18 06:20:25;;;;;;;1.47;0.90;;;22.00;78.30;;;;;;5015826;28;20488;-79
2023/06/18 06:22:51;;;;;;;1.50;1.10;;;22.20;77.20;;;;;;5002595;28;20488;-79
2023/06/18 06:25:18;;;;;;;1.50;0.90;;;22.20;77.00;;;;;;5020462;28;20463;-80
2023/06/18 06:27:48;;;;;;;1.50;0.90;;;22.30;76.10;;;;;;4999978;28;20491;-79
2023/06/18 06:30:15;;;;;;;1.50;0.90;;;22.40;76.70;;;;;;5019958;28;20486;-80
2023/06/18 06:32:42;;;;;;;1.47;0.90;;;22.50;75.40;;;;;;5010793;28;20498;-79
2023/06/18 06:35:09;;;;;;;1.43;0.90;;;22.60;75.50;;;;;;5020331;28;20470;-79
2023/06/18 06:37:39;;;;;;;1.50;0.90;;;22.70;75.10;;;;;;5003881;28;20496;-79
2023/06/18 06:40:07;;;;;;;1.43;0.90;;;22.70;74.40;;;;;;5017146;28;20575;-79
2023/06/18 06:42:35;;;;;;;1.40;0.90;;;22.80;73.90;;;;;;5003129;28;21081;-80
2023/06/18 06:45:04;;;;;;;1.50;1.20;;;22.90;74.40;;;;;;5014119;28;20476;-81
2023/06/18 06:47:31;;;;;;;1.47;0.90;;;23.10;73.80;;;;;;5002032;28;20496;-81
2023/06/18 06:49:57;;;;;;;1.50;0.90;;;23.20;73.80;;;;;;5016582;28;20559;-80
2023/06/18 06:52:24;;;;;;;1.50;1.10;;;23.30;73.20;;;;;;5002601;28;20487;-79
2023/06/18 06:54:51;;;;;;;1.47;0.90;;;23.40;73.00;;;;;;5015669;28;20488;-80
2023/06/18 06:57:18;;;;;;;4.23;1.30;;;23.40;73.20;;;;;;4997598;28;20481;-81
2023/06/18 06:59:45;;;;;;;1.50;1.07;;;23.60;73.00;;;;;;5013746;28;20493;-80
2023/06/18 07:02:15;;;;;;;1.43;0.90;;;23.70;73.00;;;;;;5002881;28;20518;-81
2023/06/18 07:04:47;;;;;;;1.47;0.80;;;23.80;72.50;;;;;;5016713;28;20459;-82
2023/06/18 07:07:14;;;;;;;1.50;1.00;;;23.80;72.00;;;;;;5000589;28;20480;-80
2023/06/18 07:09:41;;;;;;;1.47;0.90;;;23.80;72.00;;;;;;5015886;28;20539;-81
2023/06/18 07:12:09;;;;;;;1.50;0.90;;;24.00;71.90;;;;;;5018074;28;20512;-79
2023/06/18 07:14:36;;;;;;;1.50;0.90;;;24.00;71.50;;;;;;5027137;28;20532;-80
2023/06/18 07:17:03;;;;;;;1.43;0.87;;;24.20;72.20;;;;;;5000130;28;20936;-80
2023/06/18 07:19:31;;;;;;;1.70;1.30;;;24.30;72.40;;;;;;5012202;28;20491;-80
2023/06/18 07:21:58;;;;;;;1.50;1.10;;;24.60;71.50;;;;;;5002837;28;20503;-80
2023/06/18 07:24:25;;;;;;;1.70;1.30;;;24.80;70.90;;;;;;5014561;28;20455;-81
2023/06/18 07:26:51;;;;;;;1.70;1.20;;;25.10;69.80;;;;;;4999557;28;20933;-82
2023/06/18 07:29:18;;;;;;;1.47;0.90;;;25.30;68.50;;;;;;5007028;28;20467;-81
2023/06/18 07:31:45;;;;;;;1.47;0.90;;;25.40;68.30;;;;;;5000464;28;20488;-79
2023/06/18 07:34:12;;;;;;;1.47;0.90;;;25.40;68.10;;;;;;5009122;28;20491;-81
2023/06/18 07:36:49;;;;;;;1.47;0.90;;;25.50;68.00;;;;;;5004088;28;20493;-81
2023/06/18 07:39:16;;;;;;;1.50;0.90;;;25.50;67.60;;;;;;5013264;28;20488;-79
2023/06/18 07:41:47;;;;;;;1.50;0.90;;;25.60;67.70;;;;;;4995694;28;20702;-80
2023/06/18 07:44:14;;;;;;;1.47;0.80;;;25.70;68.40;;;;;;5010291;28;20460;-81
2023/06/18 07:46:42;;;;;;;1.50;0.90;;;25.80;68.10;;;;;;5000954;28;20490;-80
2023/06/18 07:49:09;;;;;;;1.50;1.00;;;25.80;67.30;;;;;;5010532;28;20647;-81
2023/06/18 07:51:36;;;;;;;1.50;0.90;;;26.10;67.20;;;;;;4992768;28;20508;-80
2023/06/18 07:54:04;;;;;;;1.47;0.80;;;26.20;67.60;;;;;;5002897;28;20463;-80
2023/06/18 07:56:31;;;;;;;1.47;0.80;;;26.40;67.30;;;;;;5002028;28;20498;-80
2023/06/18 07:58:58;;;;;;;1.40;0.83;;;26.60;67.30;;;;;;5008267;28;20489;-80
2023/06/18 08:01:25;;;;;;;1.47;0.90;;;26.90;66.90;;;;;;4997048;28;20559;-80
2023/06/18 08:03:52;;;;;;;1.43;0.80;;;27.20;65.90;;;;;;5004276;28;20460;-80
2023/06/18 08:06:18;;;;;;;1.43;0.80;;;27.40;65.60;;;;;;5002674;28;21089;-79
2023/06/18 08:08:48;;;;;;;1.50;0.90;;;27.60;65.50;;;;;;5009576;28;20467;-80
2023/06/18 08:11:17;;;;;;;1.47;0.80;;;27.80;65.40;;;;;;4998622;28;20483;-80
2023/06/18 08:13:44;;;;;;;2.43;2.23;;;28.00;65.70;;;;;;5010011;28;20472;-80
2023/06/18 08:16:11;;;;;;;1.47;0.80;;;28.40;64.30;;;;;;4999188;28;20506;-80
2023/06/18 08:18:38;;;;;;;1.50;0.80;;;28.50;63.10;;;;;;5010941;28;20464;-82
2023/06/18 08:21:05;;;;;;;1.50;0.80;;;28.60;63.70;;;;;;5001801;28;20518;-82
2023/06/18 08:26:31;;;;;;;1.40;0.80;;;28.90;63.30;;;;;;4989484;28;20570;-80
2023/06/18 08:28:58;;;;;;;1.43;0.80;;;28.90;62.60;;;;;;5012936;28;20980;-81
2023/06/18 08:31:26;;;;;;;1.50;0.90;;;29.00;62.60;;;;;;4997415;28;20695;-80
2023/06/18 08:33:53;;;;;;;1.50;0.90;;;29.00;62.20;;;;;;5003629;28;20463;-82
2023/06/18 08:36:39;;;;;;;1.43;0.90;;;28.90;61.70;;;;;;5003029;28;20570;-81
2023/06/18 08:39:06;;;;;;;1.47;0.80;;;28.90;62.40;;;;;;5013435;28;20582;-81
2023/06/18 08:41:35;;;;;;;1.43;0.90;;;29.00;62.00;;;;;;5003593;28;20947;-82
2023/06/18 08:44:02;;;;;;;1.60;1.10;;;29.00;61.60;;;;;;5011841;28;20851;-80
2023/06/18 08:46:32;;;;;;;1.43;0.80;;;28.90;61.80;;;;;;5002020;28;20488;-80
2023/06/18 08:49:00;;;;;;;1.43;0.80;;;29.00;62.60;;;;;;5011610;28;20460;-80
2023/06/18 08:51:27;;;;;;;1.47;0.80;;;29.10;61.80;;;;;;5003212;28;20483;-79
2023/06/18 08:54:09;;;;;;;1.50;0.90;;;29.30;62.20;;;;;;5011213;28;20492;-80
2023/06/18 08:56:56;;;;;;;1.47;0.80;;;29.40;60.40;;;;;;4996910;28;20552;-81
2023/06/18 08:59:23;;;;;;;1.47;0.80;;;29.60;61.50;;;;;;5007133;28;21005;-82
2023/06/18 09:01:52;;;;;;;1.60;1.13;;;29.60;59.60;;;;;;4997153;28;20501;-81
2023/06/18 09:04:21;;;;;;;1.43;0.80;;;29.60;61.00;;;;;;5012975;28;21451;-81
2023/06/18 09:06:49;;;;;;;1.47;0.80;;;29.70;60.00;;;;;;5000952;28;20526;-81
2023/06/18 09:09:16;;;;;;;1.47;0.80;;;29.70;60.00;;;;;;5021433;28;20458;-80
2023/06/18 09:11:44;;;;;;;1.47;0.80;;;29.80;60.80;;;;;;4997617;28;20479;-81
2023/06/18 09:14:10;;;;;;;1.50;1.13;;;30.00;60.60;;;;;;5006112;28;20486;-80
2023/06/18 09:16:37;;;;;;;1.47;0.80;;;30.30;61.10;;;;;;5002791;28;20535;-78
2023/06/18 09:19:05;;;;;;;1.50;1.00;;;30.50;59.20;;;;;;5005397;28;20545;-79
2023/06/18 09:21:33;;;;;;;1.43;0.80;;;30.70;58.90;;;;;;4995649;28;20524;-78
2023/06/18 09:24:02;;;;;;;1.50;1.00;;;30.80;58.80;;;;;;5018825;28;20474;-78
2023/06/18 09:26:33;;;;;;;1.47;0.80;;;30.80;57.60;;;;;;5009715;28;20480;-79
2023/06/18 09:29:05;;;;;;;1.43;0.80;;;30.80;58.40;;;;;;5016882;28;20464;-79
2023/06/18 09:31:32;;;;;;;1.43;0.80;;;30.70;58.90;;;;;;5000404;28;20649;-79
2023/06/18 09:34:22;;;;;;;1.40;0.80;;;30.70;59.70;;;;;;5011502;28;20842;-79
2023/06/18 09:37:15;;;;;;;1.47;0.80;;;30.80;59.20;;;;;;5006312;28;20510;-80
2023/06/18 09:39:42;;;;;;;1.47;0.80;;;31.00;59.50;;;;;;5011923;28;20530;-80
2023/06/18 09:42:11;;;;;;;1.43;0.80;;;31.30;58.90;;;;;;4998355;28;20495;-80
2023/06/18 09:44:39;;;;;;;1.50;0.90;;;31.60;59.60;;;;;;5012413;28;20542;-79
2023/06/18 09:47:11;;;;;;;1.40;0.80;;;31.90;59.00;;;;;;4993552;28;20509;-79
2023/06/18 09:49:38;;;;;;;1.47;0.80;;;32.20;58.60;;;;;;5011463;28;20502;-80
2023/06/18 09:52:07;;;;;;;1.50;1.00;;;32.40;57.90;;;;;;4999899;28;20228;-80
2023/06/18 09:54:40;;;;;;;1.47;0.80;;;32.50;58.10;;;;;;5010031;28;20201;-79
2023/06/18 09:57:08;;;;;;;1.47;0.80;;;32.70;57.90;;;;;;4996503;28;20229;-82
2023/06/18 09:59:35;;;;;;;1.47;0.80;;;32.90;57.70;;;;;;5013909;28;20235;-79
2023/06/18 10:02:04;;;;;;;1.40;0.80;;;33.20;57.50;;;;;;4997957;28;20252;-80
2023/06/18 10:04:32;;;;;;;1.40;0.80;;;33.40;56.70;;;;;;5010721;28;20201;-80
2023/06/18 10:07:00;;;;;;;1.43;0.80;;;33.50;56.50;;;;;;5000722;28;20907;-80
2023/06/18 10:09:33;;;;;;;1.43;0.87;;;33.60;55.40;;;;;;5008406;28;20208;-80
2023/06/18 10:12:01;;;;;;;1.40;0.80;;;33.80;54.70;;;;;;4986585;28;20233;-81
2023/06/18 10:14:30;;;;;;;1.45;0.80;;;34.00;55.40;;;;;;4999399;28;20209;-81
2023/06/18 10:17:08;;;;;;;1.40;0.80;;;34.00;55.60;;;;;;4998524;28;20237;-80
2023/06/18 10:19:41;;;;;;;1.52;0.93;;;34.20;55.10;;;;;;5012464;28;20204;-81
2023/06/18 10:22:22;;;;;;;1.42;0.80;;;34.40;54.70;;;;;;4980414;28;20241;-80
2023/06/18 10:25:02;;;;;;;1.40;0.80;;;34.40;54.40;;;;;;5012525;28;20301;-80
2023/06/18 10:27:30;;;;;;;1.40;0.90;;;34.60;54.30;;;;;;4997119;28;20292;-79
2023/06/18 10:29:58;;;;;;;1.40;0.80;;;34.70;53.90;;;;;;5007801;28;20232;-80
2023/06/18 10:32:28;;;;;;;1.40;0.80;;;34.80;53.30;;;;;;4997085;28;20303;-79
2023/06/18 10:34:58;;;;;;;1.40;0.80;;;35.00;51.50;;;;;;5008107;28;20211;-80
2023/06/18 10:37:34;;;;;;;1.40;0.80;;;35.20;52.80;;;;;;5001054;28;20257;-80
2023/06/18 10:40:03;;;;;;;1.40;0.80;;;35.30;52.50;;;;;;5009748;28;20220;-79
2023/06/18 10:42:32;;;;;;;1.40;0.80;;;35.40;51.60;;;;;;4984685;28;20261;-81
2023/06/18 10:45:02;;;;;;;1.40;0.80;;;35.30;51.80;;;;;;5014578;28;20210;-81
2023/06/18 10:47:32;;;;;;;1.40;0.80;;;35.50;51.60;;;;;;5002816;28;20233;-80
2023/06/18 10:50:17;;;;;;;1.40;0.90;;;35.50;51.80;;;;;;5013914;28;20205;-81
2023/06/18 10:52:46;;;;;;;1.40;0.80;;;35.40;50.70;;;;;;4998121;28;20239;-81
2023/06/18 10:55:15;;;;;;;1.40;0.80;;;35.30;51.40;;;;;;5012592;28;20208;-81
2023/06/18 10:57:43;;;;;;;1.50;1.02;;;35.10;50.20;;;;;;5000068;28;20627;-81
2023/06/18 11:00:19;;;;;;;1.48;0.90;;;34.70;50.70;;;;;;5008506;28;20229;-80
2023/06/18 11:02:50;;;;;;;1.40;0.80;;;34.60;52.70;;;;;;4981519;28;20537;-80
2023/06/18 11:05:48;;;;;;;1.40;0.90;;;34.40;51.60;;;;;;5009702;28;20699;-81
2023/06/18 11:08:16;;;;;;;1.40;0.80;;;34.40;52.80;;;;;;4978869;28;20268;-80
2023/06/18 11:10:45;;;;;;;1.40;0.80;;;34.30;52.80;;;;;;5013137;28;20288;-81
2023/06/18 11:13:12;;;;;;;1.40;0.80;;;34.30;51.60;;;;;;4985092;28;20248;-81
2023/06/18 11:15:53;;;;;;;1.40;0.80;;;34.30;51.20;;;;;;5012274;28;20207;-81
2023/06/18 11:18:25;;;;;;;1.40;0.80;;;34.10;52.00;;;;;;4985654;28;20216;-80
2023/06/18 11:20:53;;;;;;;1.40;0.80;;;34.10;52.50;;;;;;4999724;28;20229;-81
2023/06/18 11:23:27;;;;;;;1.40;0.85;;;34.20;52.10;;;;;;5004617;28;20197;-81
2023/06/18 11:25:54;;;;;;;1.40;0.90;;;34.20;52.10;;;;;;5004199;28;20719;-81
2023/06/18 11:28:22;;;;;;;1.40;0.80;;;34.20;50.40;;;;;;5008738;28;20434;-81
2023/06/18 11:30:52;;;;;;;1.40;0.80;;;34.10;51.10;;;;;;5001724;28;20242;-80
2023/06/18 11:33:25;;;;;;;1.40;0.80;;;34.00;52.30;;;;;;5007170;28;20268;-80
2023/06/18 11:36:11;;;;;;;1.40;0.80;;;34.00;51.70;;;;;;5007754;28;20267;-81
2023/06/18 11:38:40;;;;;;;1.40;0.90;;;34.00;51.40;;;;;;5004574;28;20220;-81
2023/06/18 11:41:07;;;;;;;1.40;0.80;;;33.90;50.60;;;;;;5003000;28;20237;-81
2023/06/18 11:43:45;;;;;;;1.50;1.00;;;33.90;51.70;;;;;;5005620;28;20209;-81
2023/06/18 11:46:26;;;;;;;1.40;0.80;;;33.90;49.90;;;;;;5004968;28;20241;-82
2023/06/18 11:48:55;;;;;;;1.40;0.80;;;33.90;50.10;;;;;;5016646;28;20212;-83
2023/06/18 11:51:24;;;;;;;1.40;0.80;;;33.90;51.70;;;;;;5002022;28;20291;-80
2023/06/18 11:53:52;;;;;;;2.80;1.87;;;33.90;51.40;;;;;;5006180;28;20617;-80
2023/06/18 11:56:24;;;;;;;1.40;0.80;;;33.90;51.00;;;;;;4997642;28;20578;-79
2023/06/18 11:58:51;;;;;;;1.40;0.80;;;33.90;51.70;;;;;;5007190;28;20424;-78
2023/06/18 12:01:27;;;;;;;1.40;0.80;;;33.90;51.00;;;;;;5000176;28;20244;-79
2023/06/18 12:04:03;;;;;;;1.40;0.80;;;34.00;51.40;;;;;;5010003;28;20228;-79
2023/06/18 12:06:31;;;;;;;1.40;0.80;;;34.20;50.60;;;;;;4994925;28;20229;-79
2023/06/18 12:09:05;;;;;;;1.40;0.80;;;34.30;51.40;;;;;;5005316;28;20205;-79
2023/06/18 12:11:47;;;;;;;1.38;0.80;;;34.40;51.00;;;;;;5000792;28;20292;-80
2023/06/18 12:14:20;;;;;;;1.40;1.00;;;34.40;51.90;;;;;;5012072;28;20209;-79
2023/06/18 12:16:52;;;;;;;1.40;0.80;;;34.20;51.60;;;;;;4994827;28;20600;-81
2023/06/18 12:19:21;;;;;;;1.40;0.80;;;33.90;49.80;;;;;;5007380;28;20269;-81
2023/06/18 12:21:50;;;;;;;1.40;0.80;;;33.50;51.30;;;;;;5002841;28;20236;-78
2023/06/18 12:24:17;;;;;;;1.40;0.80;;;33.40;52.40;;;;;;5007968;28;20685;-79
2023/06/18 12:26:44;;;;;;;1.40;0.80;;;33.40;52.60;;;;;;4993922;28;20235;-79
2023/06/18 12:29:11;;;;;;;1.40;0.80;;;33.40;54.10;;;;;;5006533;28;20209;-78
2023/06/18 12:31:38;;;;;;;1.42;0.80;;;33.30;52.90;;;;;;4992470;28;20232;-79
2023/06/18 12:34:38;;;;;;;1.40;0.90;;;33.30;51.90;;;;;;5011519;28;20191;-79
2023/06/18 12:37:08;;;;;;;1.40;0.80;;;33.20;53.90;;;;;;4995785;28;20244;-78
2023/06/18 12:39:35;;;;;;;1.40;0.80;;;33.20;53.50;;;;;;5007376;28;20196;-80
2023/06/18 12:42:02;;;;;;;1.40;0.80;;;33.20;52.40;;;;;;5000797;28;20234;-79
2023/06/18 12:44:29;;;;;;;1.40;0.80;;;33.20;53.50;;;;;;5012837;28;20205;-81
2023/06/18 12:46:57;;;;;;;1.40;0.80;;;33.00;54.00;;;;;;4994411;28;20691;-82
2023/06/18 12:49:26;;;;;;;1.47;0.80;;;32.90;54.80;;;;;;5008380;28;20216;-80
2023/06/18 12:51:54;;;;;;;1.43;0.90;;;32.80;53.60;;;;;;4991598;28;20236;-80
2023/06/18 12:54:22;;;;;;;1.40;0.80;;;32.70;55.40;;;;;;5003719;28;20201;-80
2023/06/18 12:56:49;;;;;;;1.43;0.90;;;32.60;55.10;;;;;;4994499;28;20225;-79
2023/06/18 12:59:19;;;;;;;1.43;0.80;;;32.40;53.80;;;;;;5004954;28;20215;-79